Bertram, Texas
Current Conditions -  °F | °C
As of 5:53 PM on Thursday 27 Nov 2014 (Local Time) from KBMQ Reporting Station
Clear Clear  
Wind Chill: 54°   Ceiling: Unl
Heat Index: 54°   Visibility: 10mi
Dew Point: 29°   Wind: 3mph
Humidity: 38%   Direction: 100°E
Pressure: 30.41"   Gusts: NA
Location:  30.74°N, 98.06°W
Report Text: KBMQ 272353Z AUTO 10003KT 10SM CLR 12/M02 A3041 RMK AO2 SLP295 T01221017 10161 20122 58007
Loading
Personal Weather Stations






























Interactive Weather Map New forecast layout! Learn more

10-Day Weather Forecast

Advertisements
Track Severe Weather on mobile